createdAt,value
2023-06-27T00:02:07.548Z,99329.09
2023-06-27T00:04:35.538Z,99325.22
2023-06-27T00:07:03.679Z,99333.97
2023-06-27T00:09:31.636Z,99324.84
2023-06-27T00:11:59.393Z,99330.56
2023-06-27T00:14:27.307Z,99334.72
2023-06-27T00:16:55.109Z,99329.91
2023-06-27T00:19:24.324Z,99335.19
2023-06-27T00:21:52.201Z,99325.59
2023-06-27T00:24:20.038Z,99323.72
2023-06-27T00:26:47.851Z,99333.25
2023-06-27T00:29:15.758Z,99327.50
2023-06-27T00:31:43.652Z,99328.63
2023-06-27T00:34:11.506Z,99328.28
2023-06-27T00:36:41.165Z,99329.81
2023-06-27T00:39:11.131Z,99330.22
2023-06-27T00:41:38.923Z,99323.69
2023-06-27T00:44:09.890Z,99328.66
2023-06-27T00:46:42.087Z,99323.69
2023-06-27T00:49:12.620Z,99322.19
2023-06-27T00:51:44.000Z,99316.53
2023-06-27T00:54:12.381Z,99322.88
2023-06-27T00:56:40.814Z,99322.88
2023-06-27T00:59:08.679Z,99322.91
2023-06-27T01:01:37.165Z,99325.97
2023-06-27T01:04:06.023Z,99323.31
2023-06-27T01:06:50.632Z,99316.81
2023-06-27T01:09:46.310Z,99321.69
2023-06-27T01:12:49.991Z,99323.63
2023-06-27T01:15:19.742Z,99322.13
2023-06-27T01:17:48.414Z,99320.22
2023-06-27T01:20:16.482Z,99311.44
2023-06-27T01:22:52.901Z,99319.09
2023-06-27T01:25:20.957Z,99319.53
2023-06-27T01:27:48.776Z,99315.31
2023-06-27T01:30:19.122Z,99324.41
2023-06-27T01:33:06.539Z,99315.22
2023-06-27T01:36:05.871Z,99317.50
2023-06-27T01:39:00.614Z,99317.09
2023-06-27T01:41:32.638Z,99313.28
2023-06-27T01:44:21.538Z,99324.47
2023-06-27T01:46:53.636Z,99321.69
2023-06-27T01:49:23.471Z,99321.03
2023-06-27T01:51:55.529Z,99324.81
2023-06-27T01:54:23.494Z,99324.84
2023-06-27T01:56:51.408Z,99321.28
2023-06-27T01:59:19.432Z,99317.50
2023-06-27T02:01:47.238Z,99323.47
2023-06-27T02:04:15.000Z,99322.41
2023-06-27T02:06:42.856Z,99324.69
2023-06-27T02:09:13.333Z,99326.22
2023-06-27T02:11:41.360Z,99328.28
2023-06-27T02:14:09.372Z,99327.34
2023-06-27T02:16:37.187Z,99328.03
2023-06-27T02:19:05.260Z,99322.75
2023-06-27T02:21:33.280Z,99317.50
2023-06-27T02:24:01.540Z,99320.22
2023-06-27T02:26:29.175Z,99320.94
2023-06-27T02:28:57.068Z,99316.09
2023-06-27T02:31:25.160Z,99323.03
2023-06-27T02:33:52.960Z,99335.91
2023-06-27T02:36:22.309Z,99338.03
2023-06-27T02:38:50.836Z,99335.06
2023-06-27T02:41:18.806Z,99341.16
2023-06-27T02:43:46.713Z,99344.28
2023-06-27T02:46:14.807Z,99343.44
2023-06-27T02:48:42.642Z,99345.84
2023-06-27T02:51:10.533Z,99345.84
2023-06-27T02:53:38.472Z,99342.72
2023-06-27T02:56:09.217Z,99348.22
2023-06-27T02:58:39.475Z,99348.94
2023-06-27T03:01:08.867Z,99353.75
2023-06-27T03:03:41.010Z,99342.22
2023-06-27T03:06:29.275Z,99346.75
2023-06-27T03:08:56.994Z,99336.44
2023-06-27T03:11:24.855Z,99332.53
2023-06-27T03:13:52.678Z,99333.50
2023-06-27T03:16:22.427Z,99335.16
2023-06-27T03:18:50.243Z,99340.41
2023-06-27T03:21:19.085Z,99336.63
2023-06-27T03:23:46.998Z,99341.50
2023-06-27T03:26:17.466Z,99348.69
2023-06-27T03:28:45.382Z,99346.38
2023-06-27T03:31:13.310Z,99351.50
2023-06-27T03:33:42.494Z,99354.47
2023-06-27T03:36:11.580Z,99353.69
2023-06-27T03:38:41.601Z,99354.47
2023-06-27T03:41:09.415Z,99352.84
2023-06-27T03:43:38.779Z,99350.13
2023-06-27T03:46:08.933Z,99355.69
2023-06-27T03:48:36.798Z,99349.66
2023-06-27T03:51:04.824Z,99354.84
2023-06-27T03:53:35.214Z,99351.75
2023-06-27T03:56:04.628Z,99352.44
2023-06-27T03:58:34.101Z,99356.34
2023-06-27T04:01:01.963Z,99355.59
2023-06-27T04:03:29.821Z,99360.88
2023-06-27T04:05:57.690Z,99358.22
2023-06-27T04:08:27.503Z,99366.28
2023-06-27T04:10:55.315Z,99365.63
2023-06-27T04:13:23.179Z,99366.97
2023-06-27T04:15:50.990Z,99370.69
2023-06-27T04:18:18.767Z,99376.84
2023-06-27T04:20:46.738Z,99365.00
2023-06-27T04:23:15.248Z,99367.25
2023-06-27T04:25:54.451Z,99367.06
2023-06-27T04:28:23.464Z,99372.28
2023-06-27T04:30:51.337Z,99375.78
2023-06-27T04:33:19.199Z,99371.72
2023-06-27T04:35:48.147Z,99367.91
2023-06-27T04:38:16.188Z,99374.78
2023-06-27T04:40:44.185Z,99374.13
2023-06-27T04:43:12.448Z,99378.69
2023-06-27T04:45:40.476Z,99379.56
2023-06-27T04:48:08.546Z,99381.09
2023-06-27T04:50:37.064Z,99385.69
2023-06-27T04:53:05.137Z,99378.91
2023-06-27T04:55:34.232Z,99391.84
2023-06-27T04:58:02.190Z,99393.41
2023-06-27T05:00:32.689Z,99398.03
2023-06-27T05:03:00.558Z,99402.97
2023-06-27T05:05:33.885Z,99403.38
2023-06-27T05:08:06.084Z,99398.81
2023-06-27T05:10:34.423Z,99400.00
2023-06-27T05:13:02.739Z,99405.78
2023-06-27T05:15:30.763Z,99409.22
2023-06-27T05:18:15.260Z,99408.47
2023-06-27T05:20:48.766Z,99405.47
2023-06-27T05:23:16.521Z,99400.53
2023-06-27T05:25:44.303Z,99398.63
2023-06-27T05:28:12.137Z,99393.59
2023-06-27T05:30:40.458Z,99403.81
2023-06-27T05:33:08.300Z,99398.97
2023-06-27T05:35:36.212Z,99402.78
2023-06-27T05:38:04.013Z,99404.31
2023-06-27T05:40:32.335Z,99409.31
2023-06-27T05:43:00.136Z,99400.53
2023-06-27T05:45:27.964Z,99408.53
2023-06-27T05:47:55.839Z,99408.13
2023-06-27T05:50:23.843Z,99411.63
2023-06-27T05:52:51.659Z,99413.47
2023-06-27T05:55:19.420Z,99411.19
2023-06-27T05:57:47.284Z,99418.03
2023-06-27T06:00:16.121Z,99414.97
2023-06-27T06:02:46.996Z,99404.56
2023-06-27T06:05:15.885Z,99412.53
2023-06-27T06:07:45.994Z,99414.38
2023-06-27T06:10:14.477Z,99410.47
2023-06-27T06:12:44.482Z,99426.19
2023-06-27T06:15:12.435Z,99421.38
2023-06-27T06:17:40.007Z,99418.78
2023-06-27T06:20:11.834Z,99422.59
2023-06-27T06:22:40.235Z,99415.72
2023-06-27T06:25:08.965Z,99411.47
2023-06-27T06:27:36.822Z,99415.19
2023-06-27T06:30:04.971Z,99416.53
2023-06-27T06:32:34.692Z,99419.38
2023-06-27T06:35:04.593Z,99424.72
2023-06-27T06:37:32.288Z,99428.41
2023-06-27T06:40:00.119Z,99425.19
2023-06-27T06:42:27.781Z,99430.09
2023-06-27T06:44:55.613Z,99421.84
2023-06-27T06:47:23.319Z,99422.66
2023-06-27T06:49:51.067Z,99425.19
2023-06-27T06:52:18.722Z,99415.84
2023-06-27T06:54:47.882Z,99421.84
2023-06-27T06:57:15.509Z,99421.84
2023-06-27T06:59:43.146Z,99417.38
2023-06-27T07:02:10.825Z,99419.81
2023-06-27T07:04:38.462Z,99412.69
2023-06-27T07:07:06.971Z,99413.16
2023-06-27T07:09:34.653Z,99417.09
2023-06-27T07:12:02.465Z,99417.56
2023-06-27T07:14:30.274Z,99415.13
2023-06-27T07:16:57.994Z,99407.72
2023-06-27T07:19:25.843Z,99408.22
2023-06-27T07:21:53.460Z,99416.63
2023-06-27T07:24:21.113Z,99413.19
2023-06-27T07:26:48.846Z,99411.97
2023-06-27T07:29:18.697Z,99403.41
2023-06-27T07:31:46.349Z,99401.56
2023-06-27T07:34:14.222Z,99407.28
2023-06-27T07:36:42.079Z,99408.22
2023-06-27T07:39:10.351Z,99404.66
2023-06-27T07:41:38.156Z,99410.28
2023-06-27T07:44:06.017Z,99397.19
2023-06-27T07:46:33.641Z,99395.78
2023-06-27T07:49:02.009Z,99398.94
2023-06-27T07:51:32.272Z,99394.84
2023-06-27T07:54:01.648Z,99399.25
2023-06-27T07:56:29.296Z,99389.38
2023-06-27T07:58:57.143Z,99393.34
2023-06-27T08:01:24.815Z,99391.63
2023-06-27T08:03:52.707Z,99394.16
2023-06-27T08:06:20.802Z,99398.69
2023-06-27T08:08:48.612Z,99393.06
2023-06-27T08:11:16.271Z,99401.97
2023-06-27T08:13:44.081Z,99404.88
2023-06-27T08:16:12.415Z,99401.25
2023-06-27T08:18:40.214Z,99397.94
2023-06-27T08:21:07.895Z,99400.69
2023-06-27T08:23:35.636Z,99403.63
2023-06-27T08:26:03.650Z,99404.09
2023-06-27T08:28:31.537Z,99388.00
2023-06-27T08:30:59.463Z,99399.25
2023-06-27T08:33:27.199Z,99393.50
2023-06-27T08:35:55.805Z,99396.13
2023-06-27T08:38:24.237Z,99385.16
2023-06-27T08:40:56.880Z,99389.53
2023-06-27T08:43:25.400Z,99395.84
2023-06-27T08:45:55.781Z,99387.91
2023-06-27T08:48:24.109Z,99390.28
2023-06-27T08:50:57.453Z,99393.34
2023-06-27T08:53:29.568Z,99382.13
2023-06-27T08:56:12.260Z,99384.59
2023-06-27T08:59:01.297Z,99395.91
2023-06-27T09:01:32.637Z,99381.22
2023-06-27T09:04:04.374Z,99389.31
2023-06-27T09:06:32.595Z,99379.13
2023-06-27T09:09:01.460Z,99378.44
2023-06-27T09:11:29.833Z,99366.72
2023-06-27T09:13:57.448Z,99371.66
2023-06-27T09:16:25.908Z,99365.69
2023-06-27T09:18:57.525Z,99375.91
2023-06-27T09:21:25.747Z,99364.66
2023-06-27T09:23:56.436Z,99371.00
2023-06-27T09:26:28.808Z,99366.63
2023-06-27T09:28:56.572Z,99363.59
2023-06-27T09:31:24.953Z,99362.44
2023-06-27T09:34:02.528Z,99361.06
2023-06-27T09:39:14.238Z,99351.88
2023-06-27T09:41:48.748Z,99360.69
2023-06-27T09:44:26.464Z,99353.03
2023-06-27T09:46:55.092Z,99364.53
2023-06-27T09:49:26.009Z,99361.63
2023-06-27T09:51:55.625Z,99358.28
2023-06-27T09:54:24.555Z,99361.59
2023-06-27T09:56:54.360Z,99359.94
2023-06-27T09:59:25.774Z,99355.22
2023-06-27T10:01:55.196Z,99349.47
2023-06-27T10:06:57.400Z,99349.97
2023-06-27T10:09:25.465Z,99355.34
2023-06-27T10:11:53.861Z,99358.81
2023-06-27T10:14:23.295Z,99352.31
2023-06-27T10:16:53.561Z,99351.03
2023-06-27T10:19:22.811Z,99352.63
2023-06-27T10:21:50.719Z,99351.31
2023-06-27T10:24:20.139Z,99347.38
2023-06-27T10:26:59.018Z,99340.28
2023-06-27T10:29:46.056Z,99344.00
2023-06-27T10:32:18.781Z,99348.25
2023-06-27T10:34:47.778Z,99349.78
2023-06-27T10:37:28.193Z,99334.22
2023-06-27T10:40:01.885Z,99337.19
2023-06-27T10:42:32.704Z,99326.31
2023-06-27T10:45:11.236Z,99321.59
2023-06-27T10:47:44.666Z,99325.25
2023-06-27T10:50:21.769Z,99316.66
2023-06-27T10:53:10.617Z,99318.50
2023-06-27T10:55:40.076Z,99321.00
2023-06-27T10:58:15.516Z,99318.91
2023-06-27T11:00:47.309Z,99314.50
2023-06-27T11:03:22.776Z,99308.47
2023-06-27T11:06:01.281Z,99310.34
2023-06-27T11:08:31.587Z,99314.56
2023-06-27T11:11:05.625Z,99305.00
2023-06-27T11:13:42.824Z,99297.97
2023-06-27T11:16:13.710Z,99300.69
2023-06-27T11:19:04.990Z,99296.69
2023-06-27T11:21:34.177Z,99303.38
2023-06-27T11:24:03.161Z,99292.78
2023-06-27T11:26:31.130Z,99284.91
2023-06-27T11:29:05.294Z,99289.66
2023-06-27T11:31:33.197Z,99281.91
2023-06-27T11:34:01.956Z,99282.59
2023-06-27T11:36:29.981Z,99277.34
2023-06-27T11:38:57.844Z,99270.31
2023-06-27T11:41:26.528Z,99270.72
2023-06-27T11:43:56.824Z,99266.94
2023-06-27T11:46:24.693Z,99256.53
2023-06-27T11:48:53.015Z,99254.84
2023-06-27T11:51:21.150Z,99262.69
2023-06-27T11:53:51.377Z,99253.16
2023-06-27T11:56:22.702Z,99254.97
2023-06-27T11:58:53.755Z,99253.84
2023-06-27T12:01:24.950Z,99253.09
2023-06-27T12:03:54.452Z,99242.03
2023-06-27T12:06:31.642Z,99242.84
2023-06-27T12:08:59.981Z,99240.00
2023-06-27T12:11:36.172Z,99241.16
2023-06-27T12:14:09.715Z,99235.22
2023-06-27T12:16:40.799Z,99231.28
2023-06-27T12:19:13.007Z,99216.13
2023-06-27T12:21:40.980Z,99223.56
2023-06-27T12:24:09.004Z,99213.22
2023-06-27T12:26:36.809Z,99207.88
2023-06-27T12:29:07.335Z,99213.88
2023-06-27T12:31:37.655Z,99203.84
2023-06-27T12:34:08.913Z,99203.41
2023-06-27T12:36:40.147Z,99198.03
2023-06-27T12:39:08.839Z,99205.97
2023-06-27T12:41:36.981Z,99205.09
2023-06-27T12:44:04.978Z,99199.94
2023-06-27T12:46:35.923Z,99195.69
2023-06-27T12:49:04.162Z,99197.31
2023-06-27T12:51:32.040Z,99200.13
2023-06-27T12:53:59.812Z,99190.91
2023-06-27T12:56:27.820Z,99189.13
2023-06-27T12:58:56.966Z,99184.94
2023-06-27T13:01:25.905Z,99182.88
2023-06-27T13:03:54.025Z,99183.06
2023-06-27T13:06:23.235Z,99176.69
2023-06-27T13:08:53.040Z,99175.56
2023-06-27T13:11:21.878Z,99171.63
2023-06-27T13:13:51.938Z,99170.31
2023-06-27T13:16:22.452Z,99170.38
2023-06-27T13:18:54.375Z,99169.59
2023-06-27T13:21:23.207Z,99166.28
2023-06-27T13:23:51.228Z,99155.94
2023-06-27T13:26:18.840Z,99153.78
2023-06-27T13:28:46.548Z,99160.66
2023-06-27T13:31:15.238Z,99152.16
2023-06-27T13:33:43.090Z,99151.88
2023-06-27T13:36:12.350Z,99146.97
2023-06-27T13:38:41.574Z,99148.31
2023-06-27T13:41:09.544Z,99147.47
2023-06-27T13:43:37.277Z,99151.19
2023-06-27T13:46:05.181Z,99149.91
2023-06-27T13:48:34.365Z,99143.50
2023-06-27T13:51:02.446Z,99136.44
2023-06-27T13:53:30.488Z,99133.31
2023-06-27T13:55:59.676Z,99129.13
2023-06-27T13:58:28.783Z,99135.81
2023-06-27T14:00:58.298Z,99134.03
2023-06-27T14:03:27.550Z,99128.13
2023-06-27T14:05:56.076Z,99130.72
2023-06-27T14:08:23.888Z,99125.88
2023-06-27T14:10:53.158Z,99120.22
2023-06-27T14:13:21.017Z,99119.56
2023-06-27T14:15:49.018Z,99111.22
2023-06-27T14:18:19.240Z,99107.00
2023-06-27T14:20:47.046Z,99109.13
2023-06-27T14:23:15.026Z,99100.47
2023-06-27T14:25:42.941Z,99100.97
2023-06-27T14:28:10.848Z,99103.47
2023-06-27T14:30:39.110Z,99105.56
2023-06-27T14:33:08.165Z,99102.09
2023-06-27T14:35:36.508Z,99093.59
2023-06-27T14:38:04.370Z,99092.47
2023-06-27T14:40:32.069Z,99102.13
2023-06-27T14:43:02.956Z,99094.13
2023-06-27T14:45:30.769Z,99091.84
2023-06-27T14:47:58.970Z,99097.97
2023-06-27T14:50:27.106Z,99085.19
2023-06-27T14:52:54.859Z,99076.25
2023-06-27T14:55:22.847Z,99080.88
2023-06-27T14:57:50.645Z,99078.97
2023-06-27T15:00:20.879Z,99077.72
2023-06-27T15:02:49.503Z,99066.63
2023-06-27T15:05:20.070Z,99077.72
2023-06-27T15:07:48.349Z,99077.72
2023-06-27T15:10:16.416Z,99075.66
2023-06-27T15:12:44.584Z,99074.78
2023-06-27T15:15:12.340Z,99078.09
2023-06-27T15:17:40.153Z,99072.41
2023-06-27T15:20:08.993Z,99075.53
2023-06-27T15:22:36.962Z,99067.94
2023-06-27T15:25:05.296Z,99068.28
2023-06-27T15:27:34.554Z,99074.75
2023-06-27T15:30:02.457Z,99070.31
2023-06-27T15:32:30.389Z,99071.25
2023-06-27T15:34:59.258Z,99075.56
2023-06-27T15:37:27.228Z,99070.28
2023-06-27T15:39:55.279Z,99065.72
2023-06-27T15:42:23.418Z,99065.00
2023-06-27T15:44:51.373Z,99067.72
2023-06-27T15:47:21.306Z,99065.38
2023-06-27T15:49:51.913Z,99051.69
2023-06-27T15:52:19.739Z,99059.84
2023-06-27T15:54:47.602Z,99061.47
2023-06-27T15:57:15.315Z,99063.88
2023-06-27T15:59:43.120Z,99065.63
2023-06-27T16:02:10.883Z,99066.69
2023-06-27T16:04:39.463Z,99063.56
2023-06-27T16:07:07.480Z,99060.59
2023-06-27T16:09:35.955Z,99062.25
2023-06-27T16:12:05.160Z,99068.31
2023-06-27T16:14:32.867Z,99060.34
2023-06-27T16:17:00.700Z,99060.38
2023-06-27T16:19:34.020Z,99068.38
2023-06-27T16:22:03.437Z,99064.47
2023-06-27T16:24:31.233Z,99066.72
2023-06-27T16:26:59.171Z,99067.50
2023-06-27T16:29:26.762Z,99068.69
2023-06-27T16:31:54.723Z,99069.63
2023-06-27T16:34:22.609Z,99063.75
2023-06-27T16:36:50.499Z,99077.59
2023-06-27T16:39:18.469Z,99076.03
2023-06-27T16:41:46.333Z,99075.56
2023-06-27T16:44:14.102Z,99074.38
2023-06-27T16:46:41.965Z,99069.41
2023-06-27T16:49:09.626Z,99074.97
2023-06-27T16:51:37.239Z,99073.22
2023-06-27T16:54:05.017Z,99071.72
2023-06-27T16:56:32.520Z,99077.53
2023-06-27T16:59:00.148Z,99078.28
2023-06-27T17:01:30.545Z,99076.84
2023-06-27T17:03:58.137Z,99076.97
2023-06-27T17:06:25.789Z,99076.00
2023-06-27T17:08:53.423Z,99069.75
2023-06-27T17:11:21.175Z,99070.00
2023-06-27T17:13:49.518Z,99075.31
2023-06-27T17:16:17.337Z,99076.91
2023-06-27T17:18:45.117Z,99071.66
2023-06-27T17:21:12.741Z,99078.97
2023-06-27T17:23:40.348Z,99085.19
2023-06-27T17:26:07.908Z,99081.50
2023-06-27T17:28:35.506Z,99083.56
2023-06-27T17:31:03.233Z,99078.09
2023-06-27T17:33:32.777Z,99079.28
2023-06-27T17:36:00.679Z,99085.28
2023-06-27T17:38:28.689Z,99083.56
2023-06-27T17:40:58.273Z,99081.44
2023-06-27T17:43:28.685Z,99082.56
2023-06-27T17:45:58.967Z,99079.25
2023-06-27T17:48:26.809Z,99075.13
2023-06-27T17:50:54.535Z,99076.00
2023-06-27T17:53:22.347Z,99085.41
2023-06-27T17:55:50.037Z,99072.06
2023-06-27T17:58:17.801Z,99080.69
2023-06-27T18:00:46.102Z,99079.72
2023-06-27T18:03:15.533Z,99080.38
2023-06-27T18:05:43.446Z,99081.31
2023-06-27T18:08:18.893Z,99080.34
2023-06-27T18:10:46.610Z,99089.06
2023-06-27T18:13:14.352Z,99089.25
2023-06-27T18:15:42.388Z,99096.81
2023-06-27T18:18:13.357Z,99097.34
2023-06-27T18:20:51.411Z,99093.09
2023-06-27T18:23:19.027Z,99097.56
2023-06-27T18:25:47.463Z,99104.06
2023-06-27T18:28:15.202Z,99096.47
2023-06-27T18:30:43.096Z,99097.31
2023-06-27T18:33:12.158Z,99106.91
2023-06-27T18:35:39.931Z,99106.44
2023-06-27T18:38:07.548Z,99112.34
2023-06-27T18:40:35.361Z,99104.59
2023-06-27T18:43:02.960Z,99113.25
2023-06-27T18:45:30.720Z,99120.59
2023-06-27T18:47:59.124Z,99122.19
2023-06-27T18:50:29.159Z,99127.59
2023-06-27T18:52:57.034Z,99132.06
2023-06-27T18:55:25.971Z,99134.84
2023-06-27T18:57:54.690Z,99141.72
2023-06-27T19:00:22.736Z,99135.00
2023-06-27T19:02:51.036Z,99130.63
2023-06-27T19:05:19.465Z,99141.56
2023-06-27T19:07:47.230Z,99138.03
2023-06-27T19:10:15.619Z,99139.19
2023-06-27T19:12:43.177Z,99148.09
2023-06-27T19:15:11.245Z,99154.72
2023-06-27T19:17:39.894Z,99143.13
2023-06-27T19:20:09.277Z,99154.31
2023-06-27T19:22:38.323Z,99150.19
2023-06-27T19:25:06.729Z,99156.31
2023-06-27T19:27:36.881Z,99156.16
2023-06-27T19:30:05.020Z,99166.56
2023-06-27T19:32:35.092Z,99164.78
2023-06-27T19:35:06.933Z,99162.06
2023-06-27T19:37:35.442Z,99156.16
2023-06-27T19:40:04.032Z,99163.94
2023-06-27T19:42:32.136Z,99160.78
2023-06-27T19:45:00.483Z,99156.38
2023-06-27T19:47:29.625Z,99164.00
2023-06-27T19:49:57.467Z,99171.53
2023-06-27T19:52:25.102Z,99164.91
2023-06-27T19:54:54.695Z,99162.22
2023-06-27T19:57:24.087Z,99161.25
2023-06-27T19:59:51.720Z,99173.25
2023-06-27T20:02:19.422Z,99160.50
2023-06-27T20:04:47.154Z,99177.88
2023-06-27T20:07:14.902Z,99170.56
2023-06-27T20:09:44.767Z,99172.56
2023-06-27T20:12:13.983Z,99167.97
2023-06-27T20:14:41.654Z,99173.47
2023-06-27T20:17:12.887Z,99169.00
2023-06-27T20:19:40.905Z,99171.66
2023-06-27T20:22:10.101Z,99173.84
2023-06-27T20:24:41.366Z,99181.91
2023-06-27T20:27:09.874Z,99182.88
2023-06-27T20:29:37.685Z,99180.47
2023-06-27T20:32:06.152Z,99180.91
2023-06-27T20:34:34.018Z,99178.84
2023-06-27T20:37:02.244Z,99175.00
2023-06-27T20:39:32.061Z,99181.75
2023-06-27T20:42:03.322Z,99180.19
2023-06-27T20:44:31.581Z,99180.41
2023-06-27T20:46:59.441Z,99185.84
2023-06-27T20:49:27.145Z,99178.91
2023-06-27T20:51:54.853Z,99190.59
2023-06-27T20:54:22.524Z,99188.97
2023-06-27T20:56:51.077Z,99200.09
2023-06-27T20:59:19.643Z,99187.84
2023-06-27T21:01:48.648Z,99191.03
2023-06-27T21:04:17.023Z,99187.22
2023-06-27T21:06:44.969Z,99190.91
2023-06-27T21:09:14.427Z,99195.41
2023-06-27T21:11:42.179Z,99191.44
2023-06-27T21:14:10.721Z,99199.41
2023-06-27T21:16:38.975Z,99188.63
2023-06-27T21:19:06.685Z,99193.84
2023-06-27T21:21:36.447Z,99192.75
2023-06-27T21:24:04.328Z,99199.66
2023-06-27T21:26:32.026Z,99198.72
2023-06-27T21:28:59.712Z,99192.75
2023-06-27T21:31:27.600Z,99190.09
2023-06-27T21:33:55.299Z,99185.91
2023-06-27T21:36:23.232Z,99184.63
2023-06-27T21:38:54.831Z,99185.34
2023-06-27T21:41:22.698Z,99180.44
2023-06-27T21:43:50.568Z,99187.78
2023-06-27T21:46:18.374Z,99188.41
2023-06-27T21:48:46.248Z,99183.59
2023-06-27T21:51:14.824Z,99177.84
2023-06-27T21:53:42.587Z,99178.47
2023-06-27T21:56:10.449Z,99175.56
2023-06-27T21:58:38.213Z,99179.78
2023-06-27T22:01:06.285Z,99176.63
2023-06-27T22:03:40.060Z,99174.00
2023-06-27T22:06:07.993Z,99176.88
2023-06-27T22:08:35.916Z,99174.59
2023-06-27T22:11:03.797Z,99166.66
2023-06-27T22:13:34.420Z,99170.25
2023-06-27T22:16:02.372Z,99174.13
2023-06-27T22:18:30.285Z,99171.84
2023-06-27T22:20:58.462Z,99164.88
2023-06-27T22:23:26.275Z,99170.91
2023-06-27T22:25:54.258Z,99160.22
2023-06-27T22:28:22.001Z,99164.44
2023-06-27T22:30:49.877Z,99159.59
2023-06-27T22:33:17.672Z,99155.84
2023-06-27T22:35:45.546Z,99156.94
2023-06-27T22:38:13.255Z,99161.94
2023-06-27T22:40:41.500Z,99163.41
2023-06-27T22:43:09.387Z,99168.13
2023-06-27T22:45:39.310Z,99164.75
2023-06-27T22:48:07.691Z,99171.41
2023-06-27T22:50:35.395Z,99163.47
2023-06-27T22:53:03.311Z,99169.91
2023-06-27T22:55:31.630Z,99169.44
2023-06-27T22:57:59.341Z,99177.63
2023-06-27T23:00:27.156Z,99171.88
2023-06-27T23:02:55.053Z,99177.91
2023-06-27T23:05:22.841Z,99182.03
2023-06-27T23:07:50.551Z,99177.19
2023-06-27T23:10:18.249Z,99165.75
2023-06-27T23:12:46.078Z,99172.00
2023-06-27T23:15:13.986Z,99169.88
2023-06-27T23:17:41.671Z,99162.34
2023-06-27T23:20:11.433Z,99164.50
2023-06-27T23:22:39.950Z,99173.50
2023-06-27T23:25:10.424Z,99171.44
2023-06-27T23:27:41.924Z,99178.03
2023-06-27T23:30:10.433Z,99189.66
2023-06-27T23:32:40.934Z,99189.50
2023-06-27T23:35:09.030Z,99188.53
2023-06-27T23:37:37.352Z,99188.53
2023-06-27T23:40:06.936Z,99191.16
2023-06-27T23:42:35.033Z,99177.38
2023-06-27T23:45:02.892Z,99185.19
2023-06-27T23:47:30.781Z,99182.56
2023-06-27T23:49:58.555Z,99169.66
2023-06-27T23:52:26.736Z,99174.56
2023-06-27T23:54:54.600Z,99171.00
2023-06-27T23:57:22.380Z,99166.25
2023-06-27T23:59:50.304Z,99158.75
